Duxbury, Vermont
Current Conditions -  °F | °C
As of 3:44 PM on Friday 28 Nov 2014 (Local Time) from KMVL Reporting Station
Light Snow Light Snow  
Wind Chill: 17°   Ceiling: 2700
Heat Index: 23°   Visibility: 2.5mi
Dew Point: 18°   Wind: 5mph
Humidity: 81%   Direction: 350°N
Pressure: 30.1"   Gusts: NA
Location:  44.3961°N, 72.808°W
Report Text: KMVL 282044Z AUTO 35004KT 2 1/2SM -SN BKN027 OVC035 M05/M08 A3010 RMK AO2 P0000 T10501078 TSNO
Loading
Personal Weather Stations






























Interactive Weather Map New forecast layout! Learn more

10-Day Weather Forecast

Advertisements
Track Severe Weather on mobile